createdAt,value
2023-04-07T00:00:46.014Z,7.50
2023-04-07T00:03:13.151Z,7.53
2023-04-07T00:05:40.056Z,8.13
2023-04-07T00:08:07.003Z,8.53
2023-04-07T00:10:33.820Z,6.83
2023-04-07T00:13:00.748Z,6.23
2023-04-07T00:15:27.579Z,6.23
2023-04-07T00:17:54.428Z,6.00
2023-04-07T00:20:21.367Z,6.50
2023-04-07T00:22:48.427Z,6.53
2023-04-07T00:25:15.485Z,5.73
2023-04-07T00:27:42.336Z,4.53
2023-04-07T00:30:09.379Z,4.93
2023-04-07T00:32:36.642Z,5.27
2023-04-07T00:35:03.592Z,4.27
2023-04-07T00:37:30.450Z,4.10
2023-04-07T00:39:59.281Z,4.27
2023-04-07T00:42:26.195Z,4.10
2023-04-07T00:44:53.026Z,3.40
2023-04-07T00:47:20.408Z,3.27
2023-04-07T00:49:48.228Z,3.43
2023-04-07T00:52:14.995Z,4.27
2023-04-07T00:54:42.508Z,3.20
2023-04-07T00:57:09.463Z,3.60
2023-04-07T00:59:36.357Z,3.37
2023-04-07T01:02:32.944Z,3.40
2023-04-07T01:05:23.917Z,3.77
2023-04-07T01:08:06.153Z,3.27
2023-04-07T01:10:52.301Z,3.63
2023-04-07T01:13:32.574Z,2.97
2023-04-07T01:16:01.314Z,3.23
2023-04-07T01:18:33.721Z,3.30
2023-04-07T01:21:11.339Z,3.10
2023-04-07T01:23:47.887Z,2.90
2023-04-07T01:26:23.353Z,3.40
2023-04-07T01:29:27.550Z,2.60
2023-04-07T01:31:55.742Z,3.37
2023-04-07T01:34:23.179Z,3.00
2023-04-07T01:36:50.322Z,3.87
2023-04-07T01:39:17.276Z,3.03
2023-04-07T01:41:44.138Z,3.27
2023-04-07T01:44:10.990Z,3.37
2023-04-07T01:46:37.856Z,3.27
2023-04-07T01:49:04.683Z,3.47
2023-04-07T01:51:31.607Z,2.60
2023-04-07T01:53:59.115Z,2.70
2023-04-07T01:56:25.971Z,2.87
2023-04-07T01:58:52.851Z,2.93
2023-04-07T02:01:19.703Z,3.43
2023-04-07T02:04:02.443Z,3.50
2023-04-07T02:06:49.253Z,4.07
2023-04-07T02:09:16.287Z,2.93
2023-04-07T02:11:45.415Z,3.37
2023-04-07T02:14:12.232Z,3.83
2023-04-07T02:16:39.123Z,3.33
2023-04-07T02:19:05.917Z,3.87
2023-04-07T02:21:33.752Z,3.37
2023-04-07T02:24:07.321Z,4.13
2023-04-07T02:26:35.805Z,3.40
2023-04-07T02:29:03.754Z,3.00
2023-04-07T02:31:30.761Z,2.83
2023-04-07T02:33:57.812Z,3.30
2023-04-07T02:36:24.707Z,3.17
2023-04-07T02:38:53.964Z,3.63
2023-04-07T02:41:21.555Z,4.03
2023-04-07T02:43:48.403Z,4.57
2023-04-07T02:46:16.609Z,4.17
2023-04-07T02:48:43.566Z,4.30
2023-04-07T02:51:10.360Z,4.70
2023-04-07T02:53:37.187Z,5.30
2023-04-07T02:56:04.213Z,4.30
2023-04-07T02:58:31.030Z,4.37
2023-04-07T03:00:57.891Z,3.23
2023-04-07T03:03:24.853Z,3.70
2023-04-07T03:05:51.938Z,3.87
2023-04-07T03:08:18.780Z,3.40
2023-04-07T03:10:45.875Z,4.33
2023-04-07T03:13:16.398Z,3.60
2023-04-07T03:15:43.992Z,4.47
2023-04-07T03:18:11.601Z,4.40
2023-04-07T03:20:38.478Z,5.30
2023-04-07T03:23:05.319Z,4.10
2023-04-07T03:25:32.772Z,4.10
2023-04-07T03:27:59.650Z,3.70
2023-04-07T03:30:26.527Z,3.70
2023-04-07T03:32:53.369Z,3.70
2023-04-07T03:35:20.315Z,3.53
2023-04-07T03:37:47.148Z,4.37
2023-04-07T03:40:15.298Z,3.80
2023-04-07T03:42:42.090Z,4.50
2023-04-07T03:45:09.477Z,4.20
2023-04-07T03:47:36.325Z,5.00
2023-04-07T03:50:03.299Z,5.07
2023-04-07T03:52:30.221Z,4.80
2023-04-07T03:54:57.003Z,4.80
2023-04-07T03:57:23.797Z,5.40
2023-04-07T03:59:51.399Z,4.90
2023-04-07T04:02:18.868Z,6.40
2023-04-07T04:04:46.000Z,4.13
2023-04-07T04:07:12.910Z,4.73
2023-04-07T04:09:40.089Z,4.53
2023-04-07T04:12:06.961Z,4.47
2023-04-07T04:14:33.787Z,4.53
2023-04-07T04:17:00.791Z,4.80
2023-04-07T04:19:27.625Z,4.40
2023-04-07T04:21:54.417Z,4.77
2023-04-07T04:24:21.246Z,4.17
2023-04-07T04:26:48.134Z,5.03
2023-04-07T04:29:15.048Z,4.37
2023-04-07T04:31:41.859Z,4.93
2023-04-07T04:34:08.724Z,4.90
2023-04-07T04:36:37.322Z,5.73
2023-04-07T04:39:05.250Z,6.00
2023-04-07T04:41:32.085Z,5.07
2023-04-07T04:43:59.095Z,5.27
2023-04-07T04:46:27.138Z,4.93
2023-04-07T04:48:54.240Z,5.00
2023-04-07T04:51:21.089Z,4.77
2023-04-07T04:53:47.899Z,4.73
2023-04-07T04:56:14.770Z,3.87
2023-04-07T04:58:46.088Z,5.20
2023-04-07T05:01:13.495Z,4.50
2023-04-07T05:03:40.812Z,4.50
2023-04-07T05:06:07.984Z,5.10
2023-04-07T05:08:34.791Z,4.20
2023-04-07T05:11:01.623Z,4.40
2023-04-07T05:13:30.789Z,4.50
2023-04-07T05:15:57.733Z,5.00
2023-04-07T05:18:24.691Z,4.17
2023-04-07T05:20:51.709Z,2.77
2023-04-07T05:23:18.544Z,2.37
2023-04-07T05:25:45.462Z,2.97
2023-04-07T05:28:12.320Z,3.70
2023-04-07T05:30:39.178Z,2.57
2023-04-07T05:33:06.032Z,2.73
2023-04-07T05:35:32.892Z,2.53
2023-04-07T05:37:59.705Z,2.17
2023-04-07T05:40:26.725Z,2.47
2023-04-07T05:42:53.593Z,1.93
2023-04-07T05:45:20.564Z,1.37
2023-04-07T05:47:50.127Z,1.77
2023-04-07T05:50:18.555Z,1.40
2023-04-07T05:52:46.214Z,1.70
2023-04-07T05:55:13.069Z,1.57
2023-04-07T05:57:40.335Z,1.80
2023-04-07T06:00:07.852Z,2.40
2023-04-07T06:02:34.822Z,1.90
2023-04-07T06:05:01.856Z,1.70
2023-04-07T06:07:29.773Z,2.43
2023-04-07T06:09:56.591Z,2.23
2023-04-07T06:12:23.422Z,2.10
2023-04-07T06:14:54.805Z,2.73
2023-04-07T06:17:21.879Z,1.80
2023-04-07T06:19:48.677Z,1.40
2023-04-07T06:22:15.521Z,1.50
2023-04-07T06:24:42.407Z,1.77
2023-04-07T06:27:09.212Z,2.30
2023-04-07T06:29:36.707Z,1.80
2023-04-07T06:32:03.589Z,2.17
2023-04-07T06:34:30.473Z,1.70
2023-04-07T06:36:58.351Z,1.57
2023-04-07T06:39:27.505Z,1.70
2023-04-07T06:41:54.323Z,1.50
2023-04-07T06:44:21.170Z,2.23
2023-04-07T06:46:50.440Z,2.03
2023-04-07T06:49:17.466Z,2.07
2023-04-07T06:51:44.320Z,1.70
2023-04-07T06:54:14.901Z,1.77
2023-04-07T06:56:42.467Z,2.00
2023-04-07T06:59:09.550Z,1.90
2023-04-07T07:01:37.828Z,1.70
2023-04-07T07:04:08.827Z,1.80
2023-04-07T07:06:35.796Z,2.23
2023-04-07T07:09:04.243Z,2.53
2023-04-07T07:11:31.339Z,2.33
2023-04-07T07:13:58.175Z,2.20
2023-04-07T07:16:25.028Z,2.40
2023-04-07T07:18:52.013Z,2.67
2023-04-07T07:21:19.126Z,2.13
2023-04-07T07:23:46.306Z,2.00
2023-04-07T07:26:13.386Z,2.90
2023-04-07T07:28:40.183Z,2.40
2023-04-07T07:31:13.654Z,2.40
2023-04-07T07:33:41.381Z,1.87
2023-04-07T07:36:08.622Z,2.07
2023-04-07T07:38:37.031Z,2.60
2023-04-07T07:41:04.605Z,1.83
2023-04-07T07:43:31.459Z,3.57
2023-04-07T07:45:58.368Z,1.90
2023-04-07T07:48:25.365Z,3.50
2023-04-07T07:50:52.609Z,2.17
2023-04-07T07:53:19.527Z,2.50
2023-04-07T07:55:47.205Z,1.93
2023-04-07T07:58:14.105Z,2.70
2023-04-07T08:00:41.055Z,2.23
2023-04-07T08:03:08.186Z,2.07
2023-04-07T08:05:35.385Z,2.03
2023-04-07T08:08:03.057Z,2.87
2023-04-07T08:10:29.959Z,2.43
2023-04-07T08:12:56.877Z,2.60
2023-04-07T08:15:23.747Z,3.07
2023-04-07T08:17:50.783Z,3.23
2023-04-07T08:20:17.784Z,3.23
2023-04-07T08:22:44.567Z,2.40
2023-04-07T08:25:11.445Z,2.40
2023-04-07T08:27:38.425Z,2.40
2023-04-07T08:30:08.911Z,2.40
2023-04-07T08:32:37.098Z,2.17
2023-04-07T08:35:05.487Z,2.23
2023-04-07T08:37:33.280Z,2.30
2023-04-07T08:40:00.850Z,2.17
2023-04-07T08:42:29.942Z,2.57
2023-04-07T08:45:00.179Z,2.47
2023-04-07T08:47:28.028Z,2.40
2023-04-07T08:49:56.437Z,2.40
2023-04-07T08:52:23.524Z,2.00
2023-04-07T08:54:50.366Z,2.70
2023-04-07T08:57:18.195Z,2.10
2023-04-07T08:59:48.998Z,2.70
2023-04-07T09:02:15.890Z,2.10
2023-04-07T09:04:44.165Z,2.37
2023-04-07T09:07:11.049Z,2.63
2023-04-07T09:09:37.929Z,2.20
2023-04-07T09:12:04.755Z,2.90
2023-04-07T09:14:31.640Z,3.00
2023-04-07T09:17:00.301Z,2.87
2023-04-07T09:19:27.521Z,3.10
2023-04-07T09:21:54.453Z,2.27
2023-04-07T09:24:28.868Z,2.10
2023-04-07T09:27:13.935Z,2.13
2023-04-07T09:29:43.325Z,1.63
2023-04-07T09:32:10.573Z,2.23
2023-04-07T09:34:40.915Z,1.60
2023-04-07T09:37:09.705Z,2.37
2023-04-07T09:40:03.222Z,2.67
2023-04-07T09:42:32.539Z,2.03
2023-04-07T09:45:00.491Z,1.97
2023-04-07T09:47:31.737Z,2.40
2023-04-07T09:50:01.975Z,2.40
2023-04-07T09:52:54.254Z,2.50
2023-04-07T09:55:22.224Z,1.87
2023-04-07T09:57:52.356Z,2.43
2023-04-07T10:00:19.266Z,2.63
2023-04-07T10:02:46.798Z,1.93
2023-04-07T10:05:14.074Z,2.87
2023-04-07T10:07:42.687Z,2.80
2023-04-07T10:10:10.455Z,2.47
2023-04-07T10:12:41.836Z,2.33
2023-04-07T10:15:09.051Z,2.40
2023-04-07T10:17:37.362Z,3.37
2023-04-07T10:20:05.373Z,2.20
2023-04-07T10:22:32.216Z,3.00
2023-04-07T10:25:06.620Z,2.10
2023-04-07T10:27:38.990Z,2.63
2023-04-07T10:30:12.250Z,3.30
2023-04-07T10:32:57.946Z,3.17
2023-04-07T10:35:24.867Z,2.63
2023-04-07T10:38:10.944Z,3.10
2023-04-07T10:40:38.391Z,3.60
2023-04-07T10:43:09.483Z,3.30
2023-04-07T10:45:50.690Z,2.80
2023-04-07T10:48:18.214Z,2.40
2023-04-07T10:51:10.786Z,2.90
2023-04-07T10:53:38.437Z,2.93
2023-04-07T10:56:05.914Z,2.73
2023-04-07T10:58:33.398Z,2.47
2023-04-07T11:01:00.623Z,2.60
2023-04-07T11:03:28.727Z,2.40
2023-04-07T11:06:12.004Z,2.40
2023-04-07T11:08:45.697Z,2.83
2023-04-07T11:11:15.501Z,2.60
2023-04-07T11:13:49.974Z,2.70
2023-04-07T11:16:20.040Z,2.83
2023-04-07T11:18:48.205Z,2.53
2023-04-07T11:21:18.506Z,2.87
2023-04-07T11:23:46.796Z,2.80
2023-04-07T11:26:14.632Z,3.03
2023-04-07T11:28:55.302Z,3.00
2023-04-07T11:31:31.759Z,2.60
2023-04-07T11:34:03.425Z,2.87
2023-04-07T11:36:32.387Z,2.37
2023-04-07T11:38:59.651Z,2.03
2023-04-07T11:41:32.948Z,2.20
2023-04-07T11:44:10.049Z,2.53
2023-04-07T11:46:52.937Z,2.07
2023-04-07T11:49:19.798Z,2.80
2023-04-07T11:51:47.609Z,2.70
2023-04-07T11:54:16.141Z,2.57
2023-04-07T11:56:46.866Z,2.50
2023-04-07T11:59:24.023Z,2.33
2023-04-07T12:01:51.672Z,2.67
2023-04-07T12:04:18.970Z,2.07
2023-04-07T12:06:47.678Z,2.37
2023-04-07T12:09:29.466Z,2.77
2023-04-07T12:11:58.603Z,2.57
2023-04-07T12:14:26.355Z,2.60
2023-04-07T12:16:56.353Z,2.50
2023-04-07T12:19:28.265Z,2.33
2023-04-07T12:21:56.672Z,2.23
2023-04-07T12:24:24.019Z,2.17
2023-04-07T12:26:51.005Z,3.10
2023-04-07T12:29:20.048Z,2.67
2023-04-07T12:31:49.423Z,2.57
2023-04-07T12:34:17.659Z,2.87
2023-04-07T12:36:44.791Z,2.87
2023-04-07T12:39:12.274Z,3.20
2023-04-07T12:41:40.129Z,2.90
2023-04-07T12:44:07.123Z,2.63
2023-04-07T12:46:34.111Z,3.20
2023-04-07T12:49:01.279Z,2.80
2023-04-07T12:51:28.580Z,2.87
2023-04-07T12:53:56.677Z,2.13
2023-04-07T12:56:24.221Z,2.47
2023-04-07T12:58:51.297Z,2.50
2023-04-07T13:01:18.171Z,2.30
2023-04-07T13:03:45.204Z,2.23
2023-04-07T13:06:12.339Z,2.23
2023-04-07T13:08:39.897Z,2.00
2023-04-07T13:11:07.142Z,2.03
2023-04-07T13:13:34.110Z,2.10
2023-04-07T13:16:01.266Z,2.13
2023-04-07T13:18:28.210Z,2.77
2023-04-07T13:21:26.605Z,2.77
2023-04-07T13:23:44.125Z,2.20
2023-04-07T13:26:11.477Z,1.87
2023-04-07T13:28:38.956Z,2.53
2023-04-07T13:31:06.340Z,2.87
2023-04-07T13:33:34.388Z,2.43
2023-04-07T13:36:02.352Z,2.53
2023-04-07T13:38:29.182Z,2.33
2023-04-07T13:40:57.083Z,3.10
2023-04-07T13:43:23.922Z,2.67
2023-04-07T13:45:50.870Z,2.03
2023-04-07T13:48:17.821Z,2.60
2023-04-07T13:50:44.629Z,1.77
2023-04-07T13:53:11.629Z,1.67
2023-04-07T13:55:39.167Z,1.50
2023-04-07T13:58:05.976Z,2.37
2023-04-07T14:00:32.909Z,2.20
2023-04-07T14:03:00.303Z,2.40
2023-04-07T14:05:27.364Z,1.80
2023-04-07T14:07:54.592Z,1.90
2023-04-07T14:10:21.709Z,1.80
2023-04-07T14:12:48.623Z,1.43
2023-04-07T14:15:17.728Z,1.90
2023-04-07T14:17:45.146Z,2.40
2023-04-07T14:20:12.175Z,2.30
2023-04-07T14:22:39.016Z,1.73
2023-04-07T14:25:06.498Z,2.07
2023-04-07T14:27:33.487Z,1.80
2023-04-07T14:30:00.448Z,1.97
2023-04-07T14:32:29.597Z,1.80
2023-04-07T14:34:59.113Z,2.57
2023-04-07T14:37:26.803Z,2.10
2023-04-07T14:40:02.459Z,2.50
2023-04-07T14:42:30.433Z,2.40
2023-04-07T14:44:57.957Z,2.00
2023-04-07T14:47:25.612Z,1.93
2023-04-07T14:49:53.422Z,2.17
2023-04-07T14:52:21.924Z,2.30
2023-04-07T14:54:49.091Z,2.13
2023-04-07T14:57:16.831Z,2.30
2023-04-07T14:59:44.046Z,2.23
2023-04-07T15:02:11.255Z,2.00
2023-04-07T15:04:38.744Z,2.53
2023-04-07T15:07:05.772Z,2.40
2023-04-07T15:09:32.662Z,2.00
2023-04-07T15:12:00.598Z,1.97
2023-04-07T15:14:27.464Z,2.37
2023-04-07T15:16:54.221Z,2.40
2023-04-07T15:19:21.120Z,2.70
2023-04-07T15:21:47.969Z,2.10
2023-04-07T15:24:16.272Z,2.13
2023-04-07T15:26:43.461Z,2.50
2023-04-07T15:29:10.479Z,2.30
2023-04-07T15:31:37.337Z,2.07
2023-04-07T15:34:04.268Z,1.83
2023-04-07T15:36:31.625Z,1.93
2023-04-07T15:39:04.569Z,2.17
2023-04-07T15:41:31.482Z,1.80
2023-04-07T15:43:59.995Z,1.43
2023-04-07T15:46:27.904Z,2.23
2023-04-07T15:48:54.926Z,2.67
2023-04-07T15:51:21.750Z,2.10
2023-04-07T15:53:48.940Z,2.47
2023-04-07T15:56:16.024Z,2.53
2023-04-07T15:58:42.872Z,2.13
2023-04-07T16:01:09.721Z,2.30
2023-04-07T16:03:36.610Z,2.50
2023-04-07T16:06:03.568Z,2.20
2023-04-07T16:08:30.507Z,2.03
2023-04-07T16:10:57.385Z,2.50
2023-04-07T16:13:24.414Z,2.20
2023-04-07T16:15:55.006Z,2.13
2023-04-07T16:18:21.848Z,2.47
2023-04-07T16:20:48.667Z,2.40
2023-04-07T16:23:15.530Z,2.37
2023-04-07T16:25:42.330Z,2.73
2023-04-07T16:28:09.245Z,3.00
2023-04-07T16:30:36.261Z,3.47
2023-04-07T16:33:03.410Z,2.37
2023-04-07T16:35:31.975Z,2.40
2023-04-07T16:38:04.524Z,2.33
2023-04-07T16:40:31.928Z,2.33
2023-04-07T16:42:58.808Z,2.53
2023-04-07T16:45:25.693Z,2.33
2023-04-07T16:47:52.527Z,1.93
2023-04-07T16:50:19.602Z,2.30
2023-04-07T16:52:47.729Z,3.60
2023-04-07T16:55:14.678Z,3.00
2023-04-07T16:57:41.591Z,3.20
2023-04-07T17:00:08.992Z,2.50
2023-04-07T17:02:36.073Z,3.33
2023-04-07T17:05:04.141Z,2.87
2023-04-07T17:07:31.114Z,3.20
2023-04-07T17:09:58.085Z,2.20
2023-04-07T17:12:26.412Z,2.70
2023-04-07T17:14:53.218Z,2.70
2023-04-07T17:17:22.360Z,2.37
2023-04-07T17:19:49.327Z,2.27
2023-04-07T17:22:16.198Z,2.83
2023-04-07T17:24:42.990Z,2.80
2023-04-07T17:27:10.827Z,3.40
2023-04-07T17:29:37.716Z,3.20
2023-04-07T17:32:04.693Z,3.07
2023-04-07T17:34:31.769Z,3.13
2023-04-07T17:36:58.621Z,3.37
2023-04-07T17:39:25.725Z,3.23
2023-04-07T17:41:52.588Z,3.40
2023-04-07T17:44:19.374Z,4.50
2023-04-07T17:46:46.718Z,3.00
2023-04-07T17:49:15.010Z,2.57
2023-04-07T17:51:43.846Z,2.67
2023-04-07T17:54:10.793Z,1.73
2023-04-07T17:56:38.313Z,2.37
2023-04-07T17:59:05.186Z,2.83
2023-04-07T18:01:32.329Z,2.80
2023-04-07T18:04:00.235Z,3.33
2023-04-07T18:06:28.589Z,3.37
2023-04-07T18:08:55.650Z,3.07
2023-04-07T18:11:22.948Z,3.40
2023-04-07T18:13:50.016Z,3.43
2023-04-07T18:16:21.924Z,2.70
2023-04-07T18:18:49.354Z,2.50
2023-04-07T18:21:16.195Z,2.53
2023-04-07T18:23:43.602Z,3.27
2023-04-07T18:26:10.398Z,3.10
2023-04-07T18:28:37.238Z,2.60
2023-04-07T18:31:06.602Z,2.67
2023-04-07T18:33:34.289Z,2.80
2023-04-07T18:36:03.224Z,2.77
2023-04-07T18:38:31.650Z,3.20
2023-04-07T18:40:58.862Z,3.00
2023-04-07T18:43:26.496Z,2.90
2023-04-07T18:45:54.880Z,2.87
2023-04-07T18:48:21.759Z,2.73
2023-04-07T18:50:52.490Z,2.80
2023-04-07T18:53:22.534Z,3.00
2023-04-07T18:55:49.686Z,3.23
2023-04-07T18:58:17.579Z,3.50
2023-04-07T19:00:47.880Z,3.13
2023-04-07T19:03:16.511Z,4.27
2023-04-07T19:05:47.692Z,3.60
2023-04-07T19:08:16.336Z,3.17
2023-04-07T19:10:43.941Z,3.90
2023-04-07T19:13:11.077Z,2.03
2023-04-07T19:15:39.415Z,2.40
2023-04-07T19:18:07.861Z,1.77
2023-04-07T19:20:34.826Z,1.93
2023-04-07T19:23:02.091Z,1.80
2023-04-07T19:25:31.368Z,2.13
2023-04-07T19:27:58.416Z,2.67
2023-04-07T19:30:25.311Z,2.67
2023-04-07T19:32:52.850Z,2.57
2023-04-07T19:35:20.508Z,3.60
2023-04-07T19:37:48.570Z,3.60
2023-04-07T19:40:17.061Z,3.13
2023-04-07T19:42:44.250Z,3.30
2023-04-07T19:45:11.529Z,3.47
2023-04-07T19:47:38.670Z,3.20
2023-04-07T19:50:06.650Z,2.70
2023-04-07T19:52:33.508Z,3.30
2023-04-07T19:55:01.303Z,3.77
2023-04-07T19:57:29.067Z,3.90
2023-04-07T19:59:57.290Z,4.27
2023-04-07T20:02:24.323Z,3.63
2023-04-07T20:04:51.241Z,4.33
2023-04-07T20:07:18.153Z,4.27
2023-04-07T20:09:45.265Z,3.93
2023-04-07T20:12:17.424Z,3.53
2023-04-07T20:14:44.252Z,3.20
2023-04-07T20:17:11.979Z,3.13
2023-04-07T20:19:41.571Z,3.13
2023-04-07T20:22:09.416Z,3.13
2023-04-07T20:24:36.311Z,3.30
2023-04-07T20:27:03.244Z,3.33
2023-04-07T20:29:30.056Z,3.40
2023-04-07T20:31:57.238Z,3.67
2023-04-07T20:34:24.137Z,4.00
2023-04-07T20:36:51.026Z,4.27
2023-04-07T20:39:19.886Z,3.73
2023-04-07T20:41:48.886Z,3.90
2023-04-07T20:44:18.386Z,3.60
2023-04-07T20:46:48.386Z,2.80
2023-04-07T20:49:15.209Z,4.03
2023-04-07T20:51:42.146Z,5.57
2023-04-07T20:54:09.055Z,3.80
2023-04-07T20:56:35.872Z,4.23
2023-04-07T20:59:02.676Z,3.67
2023-04-07T21:01:29.636Z,3.30
2023-04-07T21:03:56.603Z,3.97
2023-04-07T21:06:23.569Z,3.17
2023-04-07T21:08:50.550Z,3.37
2023-04-07T21:11:17.540Z,3.90
2023-04-07T21:13:45.766Z,4.23
2023-04-07T21:16:12.643Z,3.47
2023-04-07T21:18:39.518Z,3.30
2023-04-07T21:21:08.180Z,2.90
2023-04-07T21:23:35.095Z,2.80
2023-04-07T21:26:05.117Z,2.53
2023-04-07T21:28:31.931Z,2.13
2023-04-07T21:30:59.337Z,3.33
2023-04-07T21:33:26.224Z,3.70
2023-04-07T21:35:53.273Z,4.00
2023-04-07T21:38:20.202Z,3.87
2023-04-07T21:40:47.569Z,3.90
2023-04-07T21:43:23.255Z,3.70
2023-04-07T21:45:50.073Z,3.67
2023-04-07T21:48:20.837Z,3.17
2023-04-07T21:50:47.707Z,3.87
2023-04-07T21:53:14.492Z,3.17
2023-04-07T21:55:41.414Z,3.83
2023-04-07T21:58:08.190Z,3.90
2023-04-07T22:00:35.003Z,3.30
2023-04-07T22:03:03.114Z,3.57
2023-04-07T22:05:30.108Z,3.67
2023-04-07T22:07:57.011Z,3.73
2023-04-07T22:10:23.894Z,3.70
2023-04-07T22:12:50.745Z,3.57
2023-04-07T22:15:18.680Z,4.23
2023-04-07T22:17:45.854Z,3.37
2023-04-07T22:20:12.906Z,3.70
2023-04-07T22:22:39.870Z,3.97
2023-04-07T22:25:06.939Z,4.17
2023-04-07T22:27:33.934Z,3.53
2023-04-07T22:30:01.121Z,3.97
2023-04-07T22:32:28.981Z,4.00
2023-04-07T22:34:57.990Z,4.20
2023-04-07T22:37:24.838Z,4.47
2023-04-07T22:39:51.675Z,4.10
2023-04-07T22:42:18.516Z,4.77
2023-04-07T22:44:45.328Z,4.27
2023-04-07T22:47:12.514Z,4.30
2023-04-07T22:49:40.474Z,2.80
2023-04-07T22:52:07.272Z,2.80
2023-04-07T22:54:34.072Z,2.33
2023-04-07T22:57:02.172Z,2.37
2023-04-07T22:59:29.030Z,2.20
2023-04-07T23:01:57.675Z,1.73
2023-04-07T23:04:24.885Z,2.60
2023-04-07T23:06:51.721Z,2.93
2023-04-07T23:09:18.744Z,2.53
2023-04-07T23:11:48.887Z,2.43
2023-04-07T23:14:15.768Z,2.57
2023-04-07T23:16:42.638Z,2.57
2023-04-07T23:19:15.567Z,2.40
2023-04-07T23:21:43.046Z,2.57
2023-04-07T23:24:09.932Z,3.70
2023-04-07T23:26:36.726Z,3.73
2023-04-07T23:29:03.622Z,2.30
2023-04-07T23:31:31.159Z,3.27
2023-04-07T23:33:58.884Z,2.70
2023-04-07T23:36:27.187Z,2.60
2023-04-07T23:38:56.058Z,2.90
2023-04-07T23:41:23.284Z,3.13
2023-04-07T23:43:50.128Z,3.33
2023-04-07T23:46:18.261Z,4.37
2023-04-07T23:48:45.153Z,3.47
2023-04-07T23:51:12.802Z,2.90
2023-04-07T23:53:39.675Z,3.30
2023-04-07T23:56:06.739Z,3.60
2023-04-07T23:58:33.608Z,3.97
